createdAt,value
2022-08-31T00:03:25.690Z,27.74
2022-08-31T00:08:25.716Z,27.70
2022-08-31T00:13:22.411Z,27.75
2022-08-31T00:18:20.216Z,27.78
2022-08-31T00:23:17.395Z,27.93
2022-08-31T00:28:15.583Z,27.96
2022-08-31T00:33:12.789Z,27.88
2022-08-31T00:38:10.771Z,27.89
2022-08-31T00:43:07.388Z,28.07
2022-08-31T00:48:04.824Z,28.00
2022-08-31T00:53:01.803Z,27.82
2022-08-31T00:58:00.491Z,27.54
2022-08-31T01:02:57.726Z,27.32
2022-08-31T01:07:55.740Z,27.14
2022-08-31T01:12:54.288Z,27.20
2022-08-31T01:17:52.081Z,27.41
2022-08-31T01:23:06.336Z,27.85
2022-08-31T01:28:05.750Z,28.08
2022-08-31T01:33:02.490Z,27.88
2022-08-31T01:38:01.416Z,27.76
2022-08-31T01:42:58.553Z,27.45
2022-08-31T01:47:55.908Z,27.45
2022-08-31T01:52:54.984Z,27.49
2022-08-31T01:57:51.559Z,27.53
2022-08-31T02:03:24.119Z,27.60
2022-08-31T02:08:21.648Z,27.91
2022-08-31T02:13:18.324Z,27.89
2022-08-31T02:18:15.064Z,27.85
2022-08-31T02:23:12.571Z,27.69
2022-08-31T02:28:12.128Z,27.88
2022-08-31T02:33:08.837Z,27.97
2022-08-31T02:38:06.117Z,28.07
2022-08-31T02:43:03.968Z,28.15
2022-08-31T02:48:03.594Z,27.82
2022-08-31T02:53:08.917Z,27.70
2022-08-31T02:58:06.896Z,27.80
2022-08-31T03:03:03.648Z,27.94
2022-08-31T03:08:00.306Z,27.92
2022-08-31T03:12:56.961Z,27.71
2022-08-31T03:17:55.591Z,27.73
2022-08-31T03:22:53.887Z,27.70
2022-08-31T03:27:50.958Z,27.78
2022-08-31T03:32:48.110Z,27.63
2022-08-31T03:37:46.391Z,27.24
2022-08-31T03:42:44.142Z,27.12
2022-08-31T03:47:44.510Z,27.26
2022-08-31T03:52:43.492Z,26.57
2022-08-31T03:57:47.819Z,26.30
2022-08-31T04:02:44.418Z,26.05
2022-08-31T04:07:59.395Z,25.75
2022-08-31T04:13:15.069Z,26.02
2022-08-31T04:18:38.953Z,26.11
2022-08-31T04:23:38.747Z,26.09
2022-08-31T04:28:35.990Z,26.00
2022-08-31T04:33:32.502Z,25.91
2022-08-31T04:38:29.055Z,25.92
2022-08-31T04:43:25.812Z,25.99
2022-08-31T04:48:23.640Z,26.32
2022-08-31T04:53:20.402Z,26.27
2022-08-31T04:58:19.784Z,25.87
2022-08-31T05:03:16.347Z,26.06
2022-08-31T05:08:17.637Z,25.68
2022-08-31T05:13:14.263Z,25.92
2022-08-31T05:18:11.026Z,25.63
2022-08-31T05:23:14.666Z,25.40
2022-08-31T05:28:13.469Z,25.64
2022-08-31T05:33:10.583Z,25.63
2022-08-31T05:38:07.191Z,25.51
2022-08-31T05:43:04.627Z,25.70
2022-08-31T05:48:01.234Z,26.23
2022-08-31T05:53:02.462Z,26.52
2022-08-31T05:57:59.758Z,26.73
2022-08-31T06:02:57.864Z,26.47
2022-08-31T06:07:54.474Z,26.45
2022-08-31T06:12:51.692Z,26.60
2022-08-31T06:17:48.912Z,26.65
2022-08-31T06:22:47.366Z,26.70
2022-08-31T06:27:54.551Z,26.32
2022-08-31T06:32:51.097Z,26.40
2022-08-31T06:37:56.353Z,26.52
2022-08-31T06:43:24.985Z,26.39
2022-08-31T06:48:26.514Z,26.69
2022-08-31T06:53:23.809Z,26.24
2022-08-31T06:58:42.323Z,25.75
2022-08-31T07:03:57.793Z,25.93
2022-08-31T07:08:56.842Z,26.44
2022-08-31T07:13:54.623Z,26.56
2022-08-31T07:18:57.058Z,26.38
2022-08-31T07:23:54.319Z,25.98
2022-08-31T07:28:57.507Z,26.33
2022-08-31T07:33:55.626Z,26.29
2022-08-31T07:39:11.247Z,26.57
2022-08-31T07:44:14.158Z,26.86
2022-08-31T07:49:13.334Z,27.19
2022-08-31T07:54:28.439Z,27.39
2022-08-31T07:59:33.051Z,26.83
2022-08-31T08:04:31.959Z,26.85
2022-08-31T08:09:49.155Z,27.16
2022-08-31T08:15:06.367Z,27.25
2022-08-31T08:20:38.561Z,27.11
2022-08-31T08:25:37.365Z,27.06
2022-08-31T08:30:37.895Z,27.41
2022-08-31T08:35:34.871Z,27.80
2022-08-31T08:40:32.915Z,27.72
2022-08-31T08:45:31.760Z,27.94
2022-08-31T08:50:30.581Z,28.09
2022-08-31T08:55:32.380Z,28.01
2022-08-31T09:00:29.596Z,27.90
2022-08-31T09:05:41.795Z,28.42
2022-08-31T09:11:00.408Z,28.52
2022-08-31T09:16:04.607Z,28.63
2022-08-31T09:21:07.694Z,29.16
2022-08-31T09:26:08.148Z,28.73
2022-08-31T09:31:33.983Z,29.14
2022-08-31T09:36:38.258Z,29.28
2022-08-31T09:41:36.722Z,29.38
2022-08-31T09:46:39.857Z,29.68
2022-08-31T09:51:38.717Z,29.84
2022-08-31T09:56:49.885Z,29.81
2022-08-31T10:01:46.771Z,29.67
2022-08-31T10:06:49.176Z,29.79
2022-08-31T10:11:47.164Z,30.11
2022-08-31T10:16:47.450Z,29.62
2022-08-31T10:21:51.500Z,30.01
2022-08-31T10:26:53.429Z,29.97
2022-08-31T10:31:52.311Z,30.03
2022-08-31T10:36:53.535Z,30.31
2022-08-31T10:41:50.955Z,30.25
2022-08-31T10:46:49.772Z,30.76
2022-08-31T10:51:50.388Z,31.09
2022-08-31T10:56:58.663Z,30.92
2022-08-31T11:02:00.399Z,30.99
2022-08-31T11:07:00.591Z,31.21
2022-08-31T11:12:04.335Z,31.12
2022-08-31T11:17:11.924Z,30.50
2022-08-31T11:22:31.718Z,30.64
2022-08-31T11:27:33.646Z,30.83
2022-08-31T11:32:37.336Z,31.11
2022-08-31T11:37:56.246Z,31.10
2022-08-31T11:43:00.445Z,30.93
2022-08-31T11:47:57.878Z,31.18
2022-08-31T11:52:56.308Z,31.36
2022-08-31T11:58:10.792Z,31.39
2022-08-31T12:03:08.918Z,31.25
2022-08-31T12:08:14.690Z,31.20
2022-08-31T12:13:18.040Z,31.48
2022-08-31T12:18:26.598Z,31.16
2022-08-31T12:23:36.315Z,31.33
2022-08-31T12:28:40.000Z,31.20
2022-08-31T12:33:40.220Z,31.50
2022-08-31T12:38:36.991Z,31.50
2022-08-31T12:43:37.678Z,31.30
2022-08-31T12:49:07.557Z,31.14
2022-08-31T12:54:18.976Z,31.69
2022-08-31T12:59:23.192Z,31.86
2022-08-31T13:04:21.280Z,31.60
2022-08-31T13:09:28.805Z,31.66
2022-08-31T13:14:28.013Z,31.54
2022-08-31T13:19:28.866Z,31.29
2022-08-31T13:24:28.385Z,31.27
2022-08-31T13:29:25.119Z,31.37
2022-08-31T13:34:22.987Z,31.34
2022-08-31T13:39:27.192Z,31.71
2022-08-31T13:44:33.099Z,31.63
2022-08-31T13:49:34.744Z,31.61
2022-08-31T13:54:32.864Z,31.70
2022-08-31T13:59:31.673Z,31.73
2022-08-31T14:04:43.226Z,31.52
2022-08-31T14:09:44.249Z,31.72
2022-08-31T14:14:41.677Z,31.66
2022-08-31T14:19:39.025Z,31.63
2022-08-31T14:24:35.708Z,32.15
2022-08-31T14:29:33.525Z,32.17
2022-08-31T14:34:31.541Z,32.35
2022-08-31T14:39:30.777Z,32.28
2022-08-31T14:44:29.821Z,32.35
2022-08-31T14:49:26.626Z,32.40
2022-08-31T14:54:24.256Z,32.20
2022-08-31T14:59:21.971Z,31.85
2022-08-31T15:04:19.997Z,31.58
2022-08-31T15:09:16.807Z,31.68
2022-08-31T15:14:13.839Z,31.83
2022-08-31T15:19:12.977Z,32.07
2022-08-31T15:24:09.882Z,32.02
2022-08-31T15:29:06.520Z,32.34
2022-08-31T15:34:10.136Z,32.39
2022-08-31T15:39:07.665Z,32.44
2022-08-31T15:44:09.631Z,32.18
2022-08-31T15:49:07.077Z,32.36
2022-08-31T15:54:21.232Z,32.31
2022-08-31T15:59:22.233Z,31.67
2022-08-31T16:04:22.850Z,31.49
2022-08-31T16:09:22.281Z,31.42
2022-08-31T16:14:21.949Z,31.45
2022-08-31T16:19:34.234Z,31.19
2022-08-31T16:24:36.400Z,31.29
2022-08-31T16:29:34.598Z,31.38
2022-08-31T16:34:31.226Z,31.29
2022-08-31T16:39:28.459Z,31.22
2022-08-31T16:44:28.393Z,31.04
2022-08-31T16:49:35.456Z,31.09
2022-08-31T16:54:33.451Z,30.98
2022-08-31T16:59:30.300Z,30.77
2022-08-31T17:04:51.147Z,30.62
2022-08-31T17:09:46.374Z,30.69
2022-08-31T17:14:46.052Z,30.84
2022-08-31T17:19:43.806Z,30.71
2022-08-31T17:24:44.615Z,30.52
2022-08-31T17:29:43.995Z,30.37
2022-08-31T17:34:41.243Z,30.15
2022-08-31T17:39:37.928Z,30.17
2022-08-31T17:44:34.528Z,29.92
2022-08-31T17:49:31.956Z,29.68
2022-08-31T17:54:35.576Z,29.74
2022-08-31T17:59:33.866Z,29.69
2022-08-31T18:04:33.401Z,29.51
2022-08-31T18:09:31.239Z,29.45
2022-08-31T18:14:29.086Z,29.34
2022-08-31T18:19:27.814Z,29.14
2022-08-31T18:24:25.738Z,28.99
2022-08-31T18:29:24.707Z,29.02
2022-08-31T18:34:25.611Z,29.00
2022-08-31T18:39:47.691Z,28.90
2022-08-31T18:44:59.979Z,28.62
2022-08-31T18:49:57.962Z,28.46
2022-08-31T18:54:55.900Z,28.46
2022-08-31T18:59:53.611Z,28.51
2022-08-31T19:04:50.739Z,28.47
2022-08-31T19:09:47.909Z,28.55
2022-08-31T19:14:46.407Z,28.66
2022-08-31T19:19:43.792Z,29.04
2022-08-31T19:24:40.951Z,29.10
2022-08-31T19:29:39.236Z,29.27
2022-08-31T19:34:36.915Z,29.25
2022-08-31T19:39:37.156Z,29.43
2022-08-31T19:49:52.761Z,29.50
2022-08-31T19:54:51.263Z,29.14
2022-08-31T19:59:48.305Z,28.79
2022-08-31T20:04:45.082Z,28.88
2022-08-31T20:09:42.589Z,28.90
2022-08-31T20:14:39.915Z,28.62
2022-08-31T20:19:37.905Z,28.70
2022-08-31T20:24:35.348Z,28.49
2022-08-31T20:29:33.363Z,28.38
2022-08-31T20:34:31.161Z,27.94
2022-08-31T20:39:28.882Z,27.33
2022-08-31T20:44:26.767Z,27.00
2022-08-31T20:49:24.069Z,26.81
2022-08-31T20:54:22.163Z,27.02
2022-08-31T20:59:22.813Z,27.09
2022-08-31T21:04:19.421Z,27.28
2022-08-31T21:09:15.987Z,27.56
2022-08-31T21:14:14.399Z,27.72
2022-08-31T21:19:12.351Z,27.60
2022-08-31T21:24:10.905Z,27.19
2022-08-31T21:29:08.500Z,27.28
2022-08-31T21:34:05.812Z,27.04
2022-08-31T21:39:04.656Z,27.17
2022-08-31T21:44:01.369Z,27.15
2022-08-31T21:48:59.262Z,26.98
2022-08-31T21:53:58.372Z,27.12
2022-08-31T21:58:55.689Z,26.84
2022-08-31T22:03:53.954Z,26.42
2022-08-31T22:08:55.190Z,26.28
2022-08-31T22:13:54.405Z,26.24
2022-08-31T22:19:07.751Z,26.07
2022-08-31T22:24:06.312Z,26.29
2022-08-31T22:29:05.422Z,26.32
2022-08-31T22:34:03.186Z,26.04
2022-08-31T22:39:02.750Z,25.97
2022-08-31T22:44:00.554Z,25.95
2022-08-31T22:48:58.140Z,25.75
2022-08-31T22:53:55.012Z,25.61
2022-08-31T22:58:52.400Z,25.97
2022-08-31T23:03:50.674Z,26.19
2022-08-31T23:08:48.799Z,26.22
2022-08-31T23:13:52.333Z,25.98
2022-08-31T23:18:49.384Z,25.76
2022-08-31T23:23:46.746Z,25.81
2022-08-31T23:28:46.618Z,25.78
2022-08-31T23:33:46.746Z,25.69
2022-08-31T23:38:49.506Z,25.66
2022-08-31T23:43:47.492Z,25.63
2022-08-31T23:48:44.332Z,25.43
2022-08-31T23:53:41.214Z,25.75
2022-08-31T23:58:38.925Z,25.68
